createdAt,value
2023-03-01T00:01:21.193Z,8.63
2023-03-01T00:03:49.785Z,8.70
2023-03-01T00:06:18.463Z,7.93
2023-03-01T00:08:48.306Z,9.20
2023-03-01T00:11:17.897Z,8.20
2023-03-01T00:13:47.245Z,8.53
2023-03-01T00:16:17.299Z,9.23
2023-03-01T00:18:45.792Z,7.73
2023-03-01T00:21:14.233Z,8.93
2023-03-01T00:23:43.035Z,8.60
2023-03-01T00:26:15.117Z,8.30
2023-03-01T00:28:43.532Z,8.50
2023-03-01T00:31:13.425Z,8.53
2023-03-01T00:33:41.862Z,8.10
2023-03-01T00:36:11.280Z,8.30
2023-03-01T00:38:40.200Z,8.17
2023-03-01T00:41:08.951Z,8.77
2023-03-01T00:43:38.927Z,9.00
2023-03-01T00:46:08.108Z,9.40
2023-03-01T00:48:37.108Z,8.90
2023-03-01T00:51:09.461Z,8.83
2023-03-01T00:53:38.354Z,7.77
2023-03-01T00:56:07.642Z,8.33
2023-03-01T00:58:36.529Z,8.33
2023-03-01T01:01:18.589Z,8.07
2023-03-01T01:03:47.935Z,8.43
2023-03-01T01:06:17.080Z,8.90
2023-03-01T01:08:45.506Z,9.00
2023-03-01T01:11:13.968Z,8.37
2023-03-01T01:13:42.775Z,8.40
2023-03-01T01:16:12.660Z,8.70
2023-03-01T01:18:41.614Z,8.40
2023-03-01T01:21:10.637Z,8.10
2023-03-01T01:23:39.693Z,8.60
2023-03-01T01:26:08.950Z,8.83
2023-03-01T01:28:37.449Z,8.70
2023-03-01T01:31:06.150Z,8.63
2023-03-01T01:33:36.681Z,8.50
2023-03-01T01:36:05.337Z,8.23
2023-03-01T01:38:33.754Z,8.37
2023-03-01T01:41:02.167Z,9.47
2023-03-01T01:43:31.588Z,9.00
2023-03-01T01:46:01.054Z,8.73
2023-03-01T01:48:41.301Z,8.37
2023-03-01T01:51:14.130Z,8.67
2023-03-01T01:53:42.850Z,8.10
2023-03-01T01:56:12.092Z,8.17
2023-03-01T01:58:41.183Z,8.60
2023-03-01T02:01:10.239Z,8.67
2023-03-01T02:03:43.263Z,8.10
2023-03-01T02:06:18.366Z,8.87
2023-03-01T02:08:47.113Z,9.13
2023-03-01T02:11:16.584Z,9.53
2023-03-01T02:13:45.549Z,8.70
2023-03-01T02:16:15.701Z,8.23
2023-03-01T02:18:45.081Z,9.23
2023-03-01T02:21:20.266Z,8.63
2023-03-01T02:23:48.716Z,9.27
2023-03-01T02:26:22.365Z,9.10
2023-03-01T02:28:52.209Z,9.30
2023-03-01T02:31:39.038Z,9.73
2023-03-01T02:34:07.780Z,9.60
2023-03-01T02:36:38.133Z,9.93
2023-03-01T02:39:08.283Z,8.83
2023-03-01T02:41:38.210Z,9.63
2023-03-01T02:44:09.429Z,9.80
2023-03-01T02:46:44.492Z,9.37
2023-03-01T02:49:21.178Z,9.93
2023-03-01T02:51:55.063Z,9.80
2023-03-01T02:54:25.626Z,9.17
2023-03-01T02:56:54.664Z,9.37
2023-03-01T02:59:25.520Z,9.70
2023-03-01T03:01:53.937Z,9.13
2023-03-01T03:04:22.382Z,8.53
2023-03-01T03:06:51.550Z,9.50
2023-03-01T03:09:20.676Z,9.57
2023-03-01T03:11:49.540Z,9.57
2023-03-01T03:14:19.391Z,9.67
2023-03-01T03:16:49.822Z,10.03
2023-03-01T03:19:18.593Z,10.57
2023-03-01T03:21:47.325Z,9.93
2023-03-01T03:24:15.782Z,10.17
2023-03-01T03:26:44.175Z,9.87
2023-03-01T03:29:12.586Z,9.87
2023-03-01T03:31:41.023Z,11.10
2023-03-01T03:34:18.520Z,10.20
2023-03-01T03:36:46.925Z,10.00
2023-03-01T03:39:15.342Z,10.97
2023-03-01T03:41:43.754Z,10.77
2023-03-01T03:44:12.181Z,10.90
2023-03-01T03:46:40.590Z,10.87
2023-03-01T03:49:09.023Z,10.07
2023-03-01T03:51:38.827Z,10.03
2023-03-01T03:54:07.278Z,10.27
2023-03-01T03:56:35.984Z,9.53
2023-03-01T03:59:04.411Z,10.93
2023-03-01T04:01:32.839Z,10.87
2023-03-01T04:04:05.211Z,11.30
2023-03-01T04:06:33.904Z,9.80
2023-03-01T04:09:04.091Z,10.70
2023-03-01T04:11:32.507Z,10.53
2023-03-01T04:14:01.334Z,9.83
2023-03-01T04:16:30.603Z,9.77
2023-03-01T04:19:00.692Z,10.40
2023-03-01T04:21:29.187Z,9.87
2023-03-01T04:23:57.779Z,10.97
2023-03-01T04:26:31.015Z,10.47
2023-03-01T04:28:59.654Z,10.10
2023-03-01T04:31:28.158Z,10.10
2023-03-01T04:33:58.209Z,10.13
2023-03-01T04:36:28.050Z,10.77
2023-03-01T04:38:56.899Z,10.43
2023-03-01T04:41:27.282Z,11.07
2023-03-01T04:43:55.790Z,10.07
2023-03-01T04:46:24.569Z,10.37
2023-03-01T04:48:53.047Z,9.97
2023-03-01T04:51:21.467Z,10.70
2023-03-01T04:53:49.926Z,10.33
2023-03-01T04:56:19.012Z,10.57
2023-03-01T04:58:49.397Z,10.37
2023-03-01T05:01:19.061Z,10.53
2023-03-01T05:03:48.119Z,11.17
2023-03-01T05:06:16.932Z,10.63
2023-03-01T05:08:45.979Z,10.70
2023-03-01T05:11:14.838Z,10.43
2023-03-01T05:13:43.696Z,11.80
2023-03-01T05:16:13.623Z,10.93
2023-03-01T05:18:42.567Z,11.27
2023-03-01T05:21:11.753Z,11.47
2023-03-01T05:23:41.125Z,10.90
2023-03-01T05:26:25.877Z,10.50
2023-03-01T05:28:59.769Z,11.87
2023-03-01T05:31:31.770Z,11.67
2023-03-01T05:34:00.500Z,11.37
2023-03-01T05:36:29.452Z,11.43
2023-03-01T05:38:58.064Z,10.57
2023-03-01T05:41:26.634Z,10.97
2023-03-01T05:43:55.368Z,11.83
2023-03-01T05:46:25.454Z,11.30
2023-03-01T05:48:56.255Z,10.93
2023-03-01T05:51:24.681Z,11.40
2023-03-01T05:53:53.197Z,11.40
2023-03-01T05:56:23.295Z,12.13
2023-03-01T05:58:51.806Z,10.83
2023-03-01T06:01:20.216Z,10.80
2023-03-01T06:03:48.833Z,10.77
2023-03-01T06:06:18.654Z,10.83
2023-03-01T06:08:47.368Z,11.80
2023-03-01T06:11:15.821Z,12.20
2023-03-01T06:13:44.482Z,11.10
2023-03-01T06:16:13.261Z,10.40
2023-03-01T06:18:41.805Z,11.00
2023-03-01T06:21:10.834Z,10.90
2023-03-01T06:23:40.619Z,11.10
2023-03-01T06:26:09.858Z,10.17
2023-03-01T06:28:38.773Z,10.80
2023-03-01T06:31:09.647Z,10.70
2023-03-01T06:33:38.258Z,10.03
2023-03-01T06:36:07.035Z,11.43
2023-03-01T06:38:35.443Z,10.03
2023-03-01T06:41:05.325Z,10.63
2023-03-01T06:43:33.782Z,10.63
2023-03-01T06:46:02.394Z,10.67
2023-03-01T06:48:30.800Z,11.13
2023-03-01T06:51:01.685Z,10.97
2023-03-01T06:53:30.231Z,11.40
2023-03-01T06:55:58.761Z,11.80
2023-03-01T06:58:28.611Z,10.33
2023-03-01T07:00:57.049Z,10.70
2023-03-01T07:03:25.450Z,10.83
2023-03-01T07:05:54.449Z,10.73
2023-03-01T07:08:22.849Z,10.70
2023-03-01T07:10:52.696Z,11.00
2023-03-01T07:13:21.203Z,11.27
2023-03-01T07:15:51.153Z,10.67
2023-03-01T07:18:19.705Z,10.50
2023-03-01T07:20:48.220Z,11.50
2023-03-01T07:23:16.620Z,10.50
2023-03-01T07:25:45.042Z,10.43
2023-03-01T07:28:13.461Z,11.00
2023-03-01T07:30:41.883Z,10.77
2023-03-01T07:33:11.677Z,11.47
2023-03-01T07:35:40.160Z,10.90
2023-03-01T07:38:08.605Z,11.37
2023-03-01T07:40:37.100Z,11.23
2023-03-01T07:43:05.696Z,10.27
2023-03-01T07:45:34.157Z,11.10
2023-03-01T07:48:02.598Z,10.67
2023-03-01T07:50:32.992Z,11.03
2023-03-01T07:53:01.386Z,11.10
2023-03-01T07:55:29.837Z,10.33
2023-03-01T07:57:58.252Z,11.27
2023-03-01T08:00:26.733Z,11.50
2023-03-01T08:02:55.138Z,11.00
2023-03-01T08:05:23.969Z,11.43
2023-03-01T08:07:54.524Z,11.17
2023-03-01T08:10:22.998Z,11.17
2023-03-01T08:12:53.606Z,10.80
2023-03-01T08:15:22.069Z,10.40
2023-03-01T08:17:51.790Z,9.87
2023-03-01T08:20:20.273Z,11.57
2023-03-01T08:22:48.896Z,10.77
2023-03-01T08:25:18.904Z,10.80
2023-03-01T08:27:47.318Z,10.63
2023-03-01T08:30:16.146Z,10.53
2023-03-01T08:32:44.709Z,11.00
2023-03-01T08:35:13.164Z,10.67
2023-03-01T08:37:41.550Z,9.97
2023-03-01T08:40:11.888Z,9.77
2023-03-01T08:42:41.812Z,10.13
2023-03-01T08:45:10.900Z,10.07
2023-03-01T08:47:39.401Z,10.67
2023-03-01T08:50:08.409Z,10.13
2023-03-01T08:52:36.824Z,10.37
2023-03-01T08:55:05.382Z,9.63
2023-03-01T08:57:33.788Z,10.10
2023-03-01T09:00:04.363Z,9.60
2023-03-01T09:02:32.782Z,10.13
2023-03-01T09:05:01.236Z,10.07
2023-03-01T09:07:30.249Z,9.73
2023-03-01T09:09:58.663Z,9.97
2023-03-01T09:12:27.188Z,9.17
2023-03-01T09:14:55.594Z,9.37
2023-03-01T09:17:25.403Z,9.67
2023-03-01T09:19:53.848Z,9.33
2023-03-01T09:22:22.274Z,8.47
2023-03-01T09:24:50.683Z,8.40
2023-03-01T09:27:20.642Z,9.20
2023-03-01T09:29:49.046Z,8.63
2023-03-01T09:32:17.525Z,8.60
2023-03-01T09:35:05.064Z,9.33
2023-03-01T09:37:34.200Z,9.60
2023-03-01T09:40:03.012Z,9.03
2023-03-01T09:42:32.757Z,9.00
2023-03-01T09:45:03.365Z,9.10
2023-03-01T09:47:33.383Z,9.07
2023-03-01T09:50:05.021Z,8.93
2023-03-01T09:52:36.902Z,9.40
2023-03-01T09:55:11.119Z,9.00
2023-03-01T09:57:41.626Z,8.25
2023-03-01T10:00:21.833Z,8.85
2023-03-01T10:02:51.948Z,8.23
2023-03-01T10:05:38.214Z,8.77
2023-03-01T10:08:26.098Z,8.20
2023-03-01T10:10:54.980Z,9.18
2023-03-01T10:13:26.911Z,8.05
2023-03-01T10:15:58.622Z,8.23
2023-03-01T10:18:29.287Z,8.60
2023-03-01T10:20:59.603Z,8.68
2023-03-01T10:23:30.190Z,7.60
2023-03-01T10:26:02.920Z,7.68
2023-03-01T10:28:33.846Z,7.55
2023-03-01T10:31:02.426Z,7.60
2023-03-01T10:33:33.942Z,7.25
2023-03-01T10:36:02.441Z,8.05
2023-03-01T10:38:33.563Z,8.07
2023-03-01T10:41:03.262Z,7.57
2023-03-01T10:43:35.082Z,7.95
2023-03-01T10:46:03.527Z,7.53
2023-03-01T10:48:31.988Z,7.20
2023-03-01T10:51:08.726Z,7.60
2023-03-01T10:53:39.420Z,7.40
2023-03-01T10:56:09.404Z,7.20
2023-03-01T10:58:38.300Z,6.72
2023-03-01T11:01:07.505Z,6.60
2023-03-01T11:03:37.415Z,7.50
2023-03-01T11:06:08.126Z,7.10
2023-03-01T11:08:42.653Z,6.53
2023-03-01T11:11:22.821Z,6.65
2023-03-01T11:13:58.925Z,6.78
2023-03-01T11:16:29.257Z,7.30
2023-03-01T11:19:01.486Z,7.13
2023-03-01T11:21:31.976Z,7.00
2023-03-01T11:24:02.850Z,7.25
2023-03-01T11:26:33.776Z,6.38
2023-03-01T11:29:05.911Z,7.50
2023-03-01T11:31:35.148Z,6.20
2023-03-01T11:34:09.064Z,6.50
2023-03-01T11:36:38.521Z,6.75
2023-03-01T11:39:15.888Z,7.32
2023-03-01T11:41:44.629Z,6.07
2023-03-01T11:44:17.071Z,6.85
2023-03-01T11:46:54.284Z,6.25
2023-03-01T11:49:31.765Z,6.95
2023-03-01T11:52:04.742Z,6.30
2023-03-01T11:54:42.896Z,6.93
2023-03-01T11:57:16.889Z,6.88
2023-03-01T11:59:55.097Z,6.95
2023-03-01T12:02:36.428Z,6.90
2023-03-01T12:05:22.599Z,6.40
2023-03-01T12:07:55.400Z,6.72
2023-03-01T12:10:27.013Z,6.93
2023-03-01T12:13:14.173Z,6.18
2023-03-01T12:15:47.563Z,5.97
2023-03-01T12:18:34.524Z,6.68
2023-03-01T12:21:08.257Z,6.32
2023-03-01T12:23:57.549Z,6.45
2023-03-01T12:26:30.066Z,6.35
2023-03-01T12:29:05.124Z,6.20
2023-03-01T12:31:57.589Z,6.25
2023-03-01T12:34:33.433Z,6.18
2023-03-01T12:37:10.296Z,6.38
2023-03-01T12:39:45.290Z,6.07
2023-03-01T12:42:20.775Z,5.93
2023-03-01T12:45:00.613Z,6.25
2023-03-01T12:47:37.624Z,6.35
2023-03-01T12:50:08.934Z,7.30
2023-03-01T12:52:40.404Z,6.97
2023-03-01T12:55:11.717Z,7.18
2023-03-01T12:57:44.821Z,7.10
2023-03-01T13:00:20.939Z,7.28
2023-03-01T13:02:52.082Z,7.20
2023-03-01T13:05:26.408Z,5.75
2023-03-01T13:07:58.071Z,6.78
2023-03-01T13:10:29.851Z,6.90
2023-03-01T13:13:14.571Z,6.38
2023-03-01T13:15:43.732Z,6.40
2023-03-01T13:18:32.911Z,7.05
2023-03-01T13:21:02.254Z,6.97
2023-03-01T13:23:32.495Z,7.13
2023-03-01T13:26:05.418Z,6.40
2023-03-01T13:28:51.940Z,6.15
2023-03-01T13:31:38.866Z,6.25
2023-03-01T13:34:08.362Z,6.93
2023-03-01T13:36:49.918Z,6.70
2023-03-01T13:39:32.798Z,6.60
2023-03-01T13:42:02.075Z,6.82
2023-03-01T13:44:35.473Z,7.05
2023-03-01T13:47:10.551Z,6.80
2023-03-01T13:49:46.870Z,6.40
2023-03-01T13:52:33.405Z,6.72
2023-03-01T13:55:02.821Z,6.28
2023-03-01T13:57:33.287Z,6.28
2023-03-01T14:00:03.719Z,6.70
2023-03-01T14:02:32.402Z,6.65
2023-03-01T14:05:01.681Z,7.13
2023-03-01T14:07:31.555Z,7.20
2023-03-01T14:10:01.232Z,6.85
2023-03-01T14:12:36.802Z,7.13
2023-03-01T14:15:09.654Z,6.47
2023-03-01T14:17:47.816Z,7.38
2023-03-01T14:20:19.370Z,7.20
2023-03-01T14:22:48.691Z,7.38
2023-03-01T14:25:23.569Z,7.28
2023-03-01T14:27:57.864Z,6.90
2023-03-01T14:30:29.090Z,6.78
2023-03-01T14:32:58.212Z,7.32
2023-03-01T14:35:27.907Z,7.50
2023-03-01T14:37:56.422Z,7.38
2023-03-01T14:40:26.340Z,7.18
2023-03-01T14:42:55.500Z,7.20
2023-03-01T14:45:24.372Z,7.65
2023-03-01T14:47:54.233Z,7.28
2023-03-01T14:50:24.970Z,7.25
2023-03-01T14:52:57.479Z,7.70
2023-03-01T14:55:28.617Z,8.30
2023-03-01T14:57:57.226Z,7.63
2023-03-01T15:00:27.084Z,7.82
2023-03-01T15:02:58.214Z,7.22
2023-03-01T15:05:30.590Z,7.57
2023-03-01T15:08:00.228Z,8.10
2023-03-01T15:10:29.779Z,9.10
2023-03-01T15:12:58.520Z,8.75
2023-03-01T15:15:37.694Z,9.00
2023-03-01T15:18:09.984Z,8.38
2023-03-01T15:20:38.421Z,8.13
2023-03-01T15:23:07.219Z,7.70
2023-03-01T15:25:37.099Z,8.18
2023-03-01T15:28:05.861Z,8.52
2023-03-01T15:30:38.339Z,7.90
2023-03-01T15:33:21.780Z,7.80
2023-03-01T15:35:52.901Z,6.97
2023-03-01T15:38:29.923Z,7.72
2023-03-01T15:40:58.735Z,7.72
2023-03-01T15:43:40.464Z,7.75
2023-03-01T15:46:17.822Z,6.90
2023-03-01T15:48:50.347Z,7.25
2023-03-01T15:51:19.116Z,7.25
2023-03-01T15:53:54.298Z,7.82
2023-03-01T15:56:23.471Z,7.43
2023-03-01T15:58:51.880Z,7.15
2023-03-01T16:01:20.657Z,7.35
2023-03-01T16:03:50.484Z,7.88
2023-03-01T16:06:18.889Z,7.18
2023-03-01T16:08:47.333Z,7.45
2023-03-01T16:11:17.318Z,7.28
2023-03-01T16:13:46.137Z,7.47
2023-03-01T16:16:17.230Z,7.32
2023-03-01T16:18:46.686Z,7.43
2023-03-01T16:21:18.056Z,7.10
2023-03-01T16:23:47.118Z,7.03
2023-03-01T16:26:15.645Z,6.90
2023-03-01T16:28:44.481Z,6.97
2023-03-01T16:31:13.390Z,7.13
2023-03-01T16:33:42.112Z,6.22
2023-03-01T16:36:11.905Z,6.53
2023-03-01T16:38:41.771Z,6.43
2023-03-01T16:41:14.104Z,6.75
2023-03-01T16:43:43.075Z,6.13
2023-03-01T16:46:14.917Z,6.50
2023-03-01T16:48:43.776Z,6.53
2023-03-01T16:51:12.534Z,6.63
2023-03-01T16:53:42.436Z,6.90
2023-03-01T16:56:11.667Z,6.07
2023-03-01T16:58:41.092Z,6.25
2023-03-01T17:01:11.726Z,6.70
2023-03-01T17:03:40.574Z,6.72
2023-03-01T17:06:09.808Z,6.22
2023-03-01T17:08:39.065Z,6.68
2023-03-01T17:11:10.427Z,6.88
2023-03-01T17:13:39.061Z,6.88
2023-03-01T17:16:08.521Z,6.55
2023-03-01T17:18:37.875Z,7.28
2023-03-01T17:21:06.661Z,6.82
2023-03-01T17:23:35.448Z,6.73
2023-03-01T17:26:03.826Z,6.30
2023-03-01T17:28:34.374Z,7.35
2023-03-01T17:31:03.846Z,6.80
2023-03-01T17:33:32.325Z,6.77
2023-03-01T17:36:01.245Z,6.82
2023-03-01T17:38:29.999Z,7.20
2023-03-01T17:41:01.367Z,8.70
2023-03-01T17:43:30.220Z,7.60
2023-03-01T17:46:00.111Z,7.07
2023-03-01T17:48:29.097Z,6.07
2023-03-01T17:50:57.653Z,6.40
2023-03-01T17:53:26.195Z,6.35
2023-03-01T17:56:01.107Z,6.47
2023-03-01T17:58:29.596Z,6.97
2023-03-01T18:00:58.085Z,6.47
2023-03-01T18:03:27.938Z,6.33
2023-03-01T18:05:57.948Z,6.90
2023-03-01T18:08:27.358Z,7.20
2023-03-01T18:10:59.950Z,6.17
2023-03-01T18:13:28.441Z,7.27
2023-03-01T18:16:00.867Z,6.97
2023-03-01T18:18:30.725Z,6.60
2023-03-01T18:20:59.372Z,6.07
2023-03-01T18:23:28.192Z,6.47
2023-03-01T18:26:00.636Z,6.53
2023-03-01T18:28:29.067Z,6.87
2023-03-01T18:30:58.418Z,6.67
2023-03-01T18:33:27.038Z,6.73
2023-03-01T18:35:56.874Z,7.07
2023-03-01T18:38:25.379Z,6.13
2023-03-01T18:40:54.187Z,6.57
2023-03-01T18:43:22.692Z,7.07
2023-03-01T18:45:51.312Z,6.40
2023-03-01T18:48:19.748Z,6.30
2023-03-01T18:50:48.168Z,6.90
2023-03-01T18:53:20.092Z,7.07
2023-03-01T18:55:48.533Z,6.83
2023-03-01T18:58:16.945Z,6.53
2023-03-01T19:00:45.371Z,6.97
2023-03-01T19:03:14.100Z,7.67
2023-03-01T19:05:42.979Z,6.73
2023-03-01T19:08:11.429Z,7.13
2023-03-01T19:10:41.242Z,6.73
2023-03-01T19:13:10.308Z,7.00
2023-03-01T19:15:38.843Z,6.97
2023-03-01T19:18:07.381Z,7.27
2023-03-01T19:20:35.829Z,7.10
2023-03-01T19:23:04.285Z,7.17
2023-03-01T19:25:33.006Z,6.50
2023-03-01T19:28:02.975Z,7.43
2023-03-01T19:30:31.436Z,7.70
2023-03-01T19:32:59.837Z,7.10
2023-03-01T19:35:28.278Z,7.23
2023-03-01T19:37:56.725Z,7.30
2023-03-01T19:40:25.158Z,6.93
2023-03-01T19:42:53.569Z,7.40
2023-03-01T19:45:32.952Z,6.93
2023-03-01T19:48:01.504Z,7.80
2023-03-01T19:50:29.968Z,7.43
2023-03-01T19:52:58.389Z,6.37
2023-03-01T19:55:26.897Z,7.37
2023-03-01T19:57:55.309Z,7.37
2023-03-01T20:00:25.345Z,6.70
2023-03-01T20:02:53.788Z,7.80
2023-03-01T20:05:22.417Z,7.90
2023-03-01T20:07:51.200Z,6.60
2023-03-01T20:10:19.799Z,7.50
2023-03-01T20:12:48.214Z,7.33
2023-03-01T20:15:16.648Z,6.87
2023-03-01T20:17:46.486Z,7.00
2023-03-01T20:20:15.146Z,7.90
2023-03-01T20:22:43.609Z,6.97
2023-03-01T20:25:12.768Z,7.37
2023-03-01T20:27:41.269Z,7.37
2023-03-01T20:30:10.482Z,6.50
2023-03-01T20:32:38.994Z,6.77
2023-03-01T20:35:09.618Z,6.87
2023-03-01T20:37:38.453Z,6.47
2023-03-01T20:40:09.620Z,6.40
2023-03-01T20:42:38.061Z,6.60
2023-03-01T20:45:07.327Z,7.17
2023-03-01T20:47:35.740Z,5.87
2023-03-01T20:50:05.275Z,6.53
2023-03-01T20:52:45.826Z,7.37
2023-03-01T20:55:15.720Z,6.83
2023-03-01T20:57:44.182Z,6.43
2023-03-01T21:00:13.413Z,7.60
2023-03-01T21:02:41.859Z,7.23
2023-03-01T21:05:10.722Z,6.77
2023-03-01T21:07:40.768Z,6.60
2023-03-01T21:10:09.653Z,6.97
2023-03-01T21:12:38.132Z,6.80
2023-03-01T21:15:07.216Z,7.03
2023-03-01T21:17:36.200Z,6.90
2023-03-01T21:20:05.992Z,6.40
2023-03-01T21:22:35.514Z,6.20
2023-03-01T21:25:06.259Z,6.10
2023-03-01T21:27:38.063Z,6.30
2023-03-01T21:30:06.982Z,6.40
2023-03-01T21:32:35.550Z,6.70
2023-03-01T21:35:04.173Z,6.67
2023-03-01T21:37:34.171Z,6.10
2023-03-01T21:40:02.669Z,6.67
2023-03-01T21:42:35.030Z,6.07
2023-03-01T21:45:03.455Z,6.73
2023-03-01T21:47:32.114Z,6.10
2023-03-01T21:50:00.540Z,5.90
2023-03-01T21:52:29.345Z,7.00
2023-03-01T21:55:01.899Z,6.10
2023-03-01T21:57:31.705Z,6.23
2023-03-01T22:00:00.129Z,6.57
2023-03-01T22:02:28.755Z,6.10
2023-03-01T22:04:57.667Z,6.63
2023-03-01T22:07:26.125Z,6.20
2023-03-01T22:09:54.678Z,5.80
2023-03-01T22:12:23.157Z,6.43
2023-03-01T22:14:53.228Z,6.43
2023-03-01T22:17:21.663Z,6.07
2023-03-01T22:19:50.108Z,6.47
2023-03-01T22:22:18.632Z,6.30
2023-03-01T22:24:47.050Z,6.40
2023-03-01T22:27:15.484Z,6.40
2023-03-01T22:29:43.999Z,6.03
2023-03-01T22:32:14.027Z,6.23
2023-03-01T22:34:42.474Z,5.93
2023-03-01T22:37:10.977Z,6.17
2023-03-01T22:39:39.417Z,6.00
2023-03-01T22:42:07.865Z,6.20
2023-03-01T22:44:36.408Z,5.50
2023-03-01T22:47:04.840Z,5.80
2023-03-01T22:49:34.627Z,6.60
2023-03-01T22:52:03.065Z,5.93
2023-03-01T22:54:32.212Z,6.37
2023-03-01T22:57:00.649Z,6.57
2023-03-01T22:59:29.172Z,6.30
2023-03-01T23:01:57.775Z,6.30
2023-03-01T23:04:26.221Z,6.37
2023-03-01T23:06:56.105Z,6.03
2023-03-01T23:09:26.415Z,6.20
2023-03-01T23:11:55.539Z,6.40
2023-03-01T23:14:23.966Z,6.30
2023-03-01T23:16:52.907Z,6.43
2023-03-01T23:19:21.727Z,5.77
2023-03-01T23:21:51.001Z,6.17
2023-03-01T23:24:21.765Z,5.80
2023-03-01T23:26:53.341Z,6.67
2023-03-01T23:29:22.275Z,6.10
2023-03-01T23:31:50.966Z,6.43
2023-03-01T23:34:20.130Z,5.77
2023-03-01T23:36:48.637Z,6.37
2023-03-01T23:39:17.067Z,6.07
2023-03-01T23:41:46.912Z,5.90
2023-03-01T23:44:17.322Z,6.17
2023-03-01T23:46:45.938Z,6.53
2023-03-01T23:49:15.501Z,6.63
2023-03-01T23:51:45.610Z,5.77
2023-03-01T23:54:14.963Z,6.10
2023-03-01T23:56:43.983Z,6.00
2023-03-01T23:59:14.429Z,6.63
